Time;durP1;ratioP1;P1;durP2;ratioP2;P2;SDS_P1;SDS_P2;PMS_P1;PMS_P2;Temp;Humidity;BMP_temperature;BMP_pressure;BME280_temperature;BME280_humidity;BME280_pressure;Samples;Min_cycle;Max_cycle;Signal;HPM_P1;HPM_P2
2022/05/26 00:01:09;;;;;;;24.17;10.13;;;14.90;99.90;;;;;;5058871;28;25074;-62
2022/05/26 00:03:39;;;;;;;27.35;11.48;;;14.90;99.90;;;;;;5057383;28;25204;-64
2022/05/26 00:06:06;;;;;;;31.10;10.68;;;14.90;99.90;;;;;;5057041;28;25052;-62
2022/05/26 00:08:33;;;;;;;25.55;9.93;;;14.80;99.90;;;;;;5055698;28;25044;-62
2022/05/26 00:10:59;;;;;;;29.83;10.00;;;14.90;99.90;;;;;;5054748;28;25334;-62
2022/05/26 00:13:25;;;;;;;30.92;11.25;;;14.80;99.90;;;;;;5057095;28;25153;-62
2022/05/26 00:15:51;;;;;;;27.77;11.95;;;14.80;99.90;;;;;;5056091;28;25095;-61
2022/05/26 00:18:17;;;;;;;37.65;11.10;;;14.80;99.90;;;;;;5052947;28;25058;-61
2022/05/26 00:20:43;;;;;;;27.25;11.60;;;14.80;99.90;;;;;;5056453;28;25127;-63
2022/05/26 00:23:09;;;;;;;28.35;10.98;;;14.70;99.90;;;;;;5056015;28;25056;-62
2022/05/26 00:25:35;;;;;;;33.83;11.60;;;14.70;99.90;;;;;;5054348;28;25133;-62
2022/05/26 00:28:00;;;;;;;31.55;10.40;;;14.80;99.90;;;;;;5056854;28;25079;-64
2022/05/26 00:30:26;;;;;;;34.08;11.35;;;14.70;99.90;;;;;;5057174;28;25152;-62
2022/05/26 00:32:52;;;;;;;38.15;11.60;;;14.80;99.90;;;;;;5053633;28;25077;-64
2022/05/26 00:35:17;;;;;;;26.55;10.32;;;14.80;99.90;;;;;;5056834;28;25068;-62
2022/05/26 00:37:43;;;;;;;33.90;10.10;;;14.80;99.90;;;;;;5056849;28;25071;-62
2022/05/26 00:40:12;;;;;;;34.35;12.43;;;14.70;99.90;;;;;;5056650;28;25062;-62
2022/05/26 00:42:37;;;;;;;35.72;12.73;;;14.70;99.90;;;;;;5055859;28;25052;-63
2022/05/26 00:45:04;;;;;;;34.30;11.73;;;14.70;99.90;;;;;;5056837;28;25085;-62
2022/05/26 00:47:34;;;;;;;29.27;11.43;;;14.60;99.90;;;;;;5057320;28;25082;-62
2022/05/26 00:50:07;;;;;;;40.88;11.70;;;14.70;99.90;;;;;;5055983;28;25096;-62
2022/05/26 00:52:35;;;;;;;34.97;12.05;;;14.70;99.90;;;;;;5057649;28;25043;-63
2022/05/26 00:55:10;;;;;;;28.23;10.43;;;14.70;99.90;;;;;;5058095;28;25065;-62
2022/05/26 00:57:45;;;;;;;32.75;12.50;;;14.70;99.90;;;;;;5055996;28;25062;-62
2022/05/26 01:00:17;;;;;;;36.03;11.98;;;14.70;99.90;;;;;;5055910;28;25106;-62
2022/05/26 01:03:05;;;;;;;37.17;11.00;;;14.60;99.90;;;;;;5055683;28;25052;-63
2022/05/26 01:05:39;;;;;;;38.50;13.10;;;14.60;99.90;;;;;;5055739;28;25064;-62
2022/05/26 01:08:12;;;;;;;38.53;13.10;;;14.50;99.90;;;;;;5057021;28;25057;-62
2022/05/26 01:10:38;;;;;;;43.97;12.48;;;14.50;99.90;;;;;;5055108;28;25064;-61
2022/05/26 01:13:03;;;;;;;33.10;12.73;;;14.50;99.90;;;;;;5055058;28;25103;-62
2022/05/26 01:15:35;;;;;;;31.52;11.00;;;14.50;99.90;;;;;;5057644;28;25073;-62
2022/05/26 01:18:14;;;;;;;37.15;13.02;;;14.50;99.90;;;;;;5060049;28;25078;-63
2022/05/26 01:20:48;;;;;;;35.20;11.60;;;14.40;99.90;;;;;;5056508;28;25128;-60
2022/05/26 01:23:44;;;;;;;49.58;13.25;;;14.40;99.90;;;;;;5054507;28;25099;-63
2022/05/26 01:26:39;;;;;;;38.40;11.00;;;14.40;99.90;;;;;;5055767;28;25112;-62
2022/05/26 01:29:48;;;;;;;32.05;10.23;;;14.40;99.90;;;;;;5057266;28;25093;-61
2022/05/26 01:32:36;;;;;;;36.10;11.02;;;14.40;99.90;;;;;;5058350;28;25072;-62
2022/05/26 01:35:12;;;;;;;40.42;11.88;;;14.50;99.90;;;;;;5056464;28;25057;-62
2022/05/26 01:38:23;;;;;;;32.60;10.75;;;14.40;99.90;;;;;;5055701;28;25061;-62
2022/05/26 01:41:03;;;;;;;42.83;11.23;;;14.50;99.90;;;;;;5036244;28;25165;-62
2022/05/26 01:43:47;;;;;;;31.17;9.77;;;14.50;99.90;;;;;;5054331;28;25055;-61
2022/05/26 01:46:31;;;;;;;31.17;9.52;;;14.50;99.90;;;;;;5055387;28;25081;-62
2022/05/26 01:49:14;;;;;;;44.83;11.90;;;14.60;99.90;;;;;;5055599;28;25141;-62
2022/05/26 01:52:04;;;;;;;41.00;11.88;;;14.50;99.90;;;;;;5054415;28;25070;-62
2022/05/26 01:54:45;;;;;;;36.45;10.00;;;14.50;99.90;;;;;;5054377;28;25115;-61
2022/05/26 01:57:18;;;;;;;34.55;9.93;;;14.50;99.90;;;;;;5053624;28;25060;-61
2022/05/26 01:59:52;;;;;;;40.28;10.02;;;14.60;99.90;;;;;;5054846;28;25066;-61
2022/05/26 02:02:24;;;;;;;32.40;9.10;;;14.60;99.90;;;;;;5055546;28;25148;-61
2022/05/26 02:05:00;;;;;;;30.80;10.65;;;14.50;99.90;;;;;;5054989;28;25059;-62
2022/05/26 02:07:49;;;;;;;36.97;9.68;;;14.50;99.90;;;;;;5054830;28;25145;-62
2022/05/26 02:10:28;;;;;;;34.78;9.05;;;14.60;99.90;;;;;;5035523;28;25134;-62
2022/05/26 02:13:00;;;;;;;35.03;9.93;;;14.60;99.90;;;;;;5054568;28;25155;-62
2022/05/26 02:15:42;;;;;;;30.98;9.02;;;14.50;99.90;;;;;;5054561;28;25075;-62
2022/05/26 02:18:17;;;;;;;37.42;10.07;;;14.50;99.90;;;;;;5053824;28;25149;-62
2022/05/26 02:20:50;;;;;;;34.10;9.65;;;14.50;99.90;;;;;;5054162;28;25102;-61
2022/05/26 02:23:26;;;;;;;33.95;9.18;;;14.50;99.90;;;;;;5055552;28;25063;-61
2022/05/26 02:25:52;;;;;;;37.75;9.40;;;14.40;99.90;;;;;;5054207;28;25066;-61
2022/05/26 02:28:18;;;;;;;41.60;9.00;;;14.40;99.90;;;;;;5054070;28;25137;-61
2022/05/26 02:30:44;;;;;;;41.55;8.82;;;14.40;99.90;;;;;;5053484;28;25083;-61
2022/05/26 02:33:14;;;;;;;29.08;7.43;;;14.40;99.90;;;;;;5053378;28;25124;-62
2022/05/26 02:35:45;;;;;;;42.38;9.23;;;14.40;99.90;;;;;;5053320;28;25083;-62
2022/05/26 02:38:14;;;;;;;38.37;9.07;;;14.50;99.90;;;;;;5054461;28;25072;-63
2022/05/26 02:40:41;;;;;;;30.80;7.80;;;14.40;99.90;;;;;;5054639;28;25129;-62
2022/05/26 02:43:13;;;;;;;43.80;9.00;;;14.40;99.90;;;;;;5054085;28;25105;-62
2022/05/26 02:46:04;;;;;;;40.00;7.93;;;14.50;99.90;;;;;;5053663;28;25214;-62
2022/05/26 02:48:58;;;;;;;32.35;8.52;;;14.50;99.90;;;;;;5055232;28;25064;-62
2022/05/26 02:51:32;;;;;;;43.78;8.18;;;14.50;99.90;;;;;;5055622;28;25081;-63
2022/05/26 02:54:19;;;;;;;28.88;7.43;;;14.50;99.90;;;;;;5054582;28;25110;-62
2022/05/26 02:57:07;;;;;;;42.35;8.45;;;14.50;99.90;;;;;;5054876;28;25074;-62
2022/05/26 03:00:00;;;;;;;36.78;8.15;;;14.50;99.90;;;;;;5055648;28;25100;-63
2022/05/26 03:02:39;;;;;;;35.25;8.60;;;14.50;99.90;;;;;;5057277;28;25138;-62
2022/05/26 03:05:30;;;;;;;32.28;8.25;;;14.40;99.90;;;;;;5053576;28;25172;-61
2022/05/26 03:08:00;;;;;;;39.08;8.10;;;14.50;99.90;;;;;;5054537;28;25084;-62
2022/05/26 03:10:29;;;;;;;35.75;8.43;;;14.40;99.90;;;;;;5055893;28;25068;-61
2022/05/26 03:12:56;;;;;;;37.28;8.32;;;14.40;99.90;;;;;;5053009;28;25055;-62
2022/05/26 03:15:22;;;;;;;43.92;8.23;;;14.40;99.90;;;;;;5053336;28;25134;-61
2022/05/26 03:17:48;;;;;;;34.03;8.38;;;14.40;99.90;;;;;;5055608;28;25050;-62
2022/05/26 03:20:14;;;;;;;42.63;9.02;;;14.40;99.90;;;;;;5056886;28;25065;-63
2022/05/26 03:22:39;;;;;;;43.38;8.40;;;14.40;99.90;;;;;;5055709;28;25096;-61
2022/05/26 03:25:06;;;;;;;40.83;7.75;;;14.40;99.90;;;;;;5056108;28;25164;-61
2022/05/26 03:27:32;;;;;;;40.78;8.65;;;14.40;99.90;;;;;;5055118;28;25076;-62
2022/05/26 03:29:58;;;;;;;28.85;6.97;;;14.50;99.90;;;;;;5051460;28;25065;-63
2022/05/26 03:32:24;;;;;;;35.90;7.40;;;14.40;99.90;;;;;;5053568;28;25048;-62
2022/05/26 03:43:04;;;;;;;30.25;6.10;;;14.30;99.90;;;;;;5054032;28;25073;-63
2022/05/26 03:45:33;;;;;;;29.85;6.95;;;14.40;99.90;;;;;;5054518;28;25084;-62
2022/05/26 03:47:59;;;;;;;36.22;7.70;;;14.40;99.90;;;;;;5051339;28;25055;-62
2022/05/26 03:50:25;;;;;;;27.55;6.40;;;14.40;99.90;;;;;;5056605;28;25080;-61
2022/05/26 03:52:51;;;;;;;32.13;7.35;;;14.40;99.90;;;;;;5059145;28;25053;-62
2022/05/26 03:55:18;;;;;;;27.67;7.38;;;14.40;99.90;;;;;;5055304;28;25100;-62
2022/05/26 03:57:44;;;;;;;33.72;6.72;;;14.40;99.90;;;;;;5054098;28;25051;-62
2022/05/26 04:00:10;;;;;;;26.75;6.90;;;14.30;99.90;;;;;;5057031;28;25073;-61
2022/05/26 04:02:36;;;;;;;26.90;6.38;;;14.30;99.90;;;;;;5057720;28;25095;-61
2022/05/26 04:05:02;;;;;;;27.48;6.20;;;14.30;99.90;;;;;;5056408;28;25111;-62
2022/05/26 04:07:27;;;;;;;31.80;6.05;;;14.30;99.90;;;;;;5056787;28;25165;-62
2022/05/26 04:09:53;;;;;;;30.90;6.70;;;14.30;99.90;;;;;;5056326;28;25126;-60
2022/05/26 04:12:18;;;;;;;33.47;6.80;;;14.30;99.90;;;;;;5057479;28;25061;-61
2022/05/26 04:14:44;;;;;;;34.47;6.10;;;14.20;99.90;;;;;;5054675;28;25107;-62
2022/05/26 04:17:10;;;;;;;29.15;7.03;;;14.20;99.90;;;;;;5057094;28;25119;-61
2022/05/26 04:19:41;;;;;;;33.80;6.72;;;14.30;99.90;;;;;;5056700;28;25093;-64
2022/05/26 04:22:15;;;;;;;26.08;6.20;;;14.40;99.90;;;;;;5056128;28;25103;-63
2022/05/26 04:24:42;;;;;;;26.08;5.03;;;14.40;99.90;;;;;;5055521;28;25131;-61
2022/05/26 04:27:08;;;;;;;23.25;5.30;;;14.40;99.90;;;;;;5058904;28;25103;-61
2022/05/26 04:29:36;;;;;;;23.70;5.47;;;14.40;99.90;;;;;;5056976;28;25082;-63
2022/05/26 04:32:02;;;;;;;29.20;6.10;;;14.40;99.90;;;;;;5055478;28;25081;-60
2022/05/26 04:34:28;;;;;;;28.75;5.72;;;14.40;99.90;;;;;;5056568;28;24851;-61
2022/05/26 04:36:54;;;;;;;25.10;5.68;;;14.50;99.90;;;;;;5051354;28;25132;-65
2022/05/26 04:39:19;;;;;;;26.45;5.70;;;14.50;99.90;;;;;;5052927;28;25138;-61
2022/05/26 04:41:46;;;;;;;24.50;5.78;;;14.50;99.90;;;;;;5050744;28;25140;-61
2022/05/26 04:44:14;;;;;;;27.33;6.35;;;14.50;99.90;;;;;;5053191;28;25157;-62
2022/05/26 04:46:40;;;;;;;21.70;5.13;;;14.60;99.90;;;;;;5054076;28;25075;-62
2022/05/26 04:49:07;;;;;;;23.40;4.70;;;14.60;99.90;;;;;;5052121;28;25142;-62
2022/05/26 04:51:34;;;;;;;26.23;5.15;;;14.60;99.90;;;;;;5052716;28;25090;-62
2022/05/26 04:54:00;;;;;;;23.77;4.20;;;14.70;99.90;;;;;;5050094;28;25116;-61
2022/05/26 04:56:26;;;;;;;30.70;6.60;;;14.60;99.90;;;;;;5054108;28;25072;-61
2022/05/26 04:58:51;;;;;;;21.80;4.75;;;14.70;99.90;;;;;;5053700;28;25052;-60
2022/05/26 05:01:19;;;;;;;19.65;5.10;;;14.70;99.90;;;;;;5052361;28;25068;-60
2022/05/26 05:03:46;;;;;;;22.10;4.72;;;14.70;99.90;;;;;;5051925;28;25060;-63
2022/05/26 05:06:13;;;;;;;20.27;4.53;;;14.80;99.90;;;;;;5054076;28;25107;-62
2022/05/26 05:08:39;;;;;;;24.27;4.57;;;14.80;99.90;;;;;;5052545;28;25152;-62
2022/05/26 05:11:05;;;;;;;22.02;4.95;;;14.90;99.90;;;;;;5052730;28;25155;-64
2022/05/26 05:13:32;;;;;;;18.95;4.43;;;14.90;99.90;;;;;;5054880;28;25082;-61
2022/05/26 05:16:04;;;;;;;22.17;4.45;;;14.90;99.90;;;;;;5056383;28;25125;-62
2022/05/26 05:18:30;;;;;;;14.98;4.43;;;14.90;99.90;;;;;;5050841;28;25055;-61
2022/05/26 05:20:59;;;;;;;17.98;3.95;;;14.90;99.90;;;;;;5052416;28;25104;-62
2022/05/26 05:23:26;;;;;;;23.50;5.97;;;14.90;99.90;;;;;;5050053;28;25067;-62
2022/05/26 05:25:55;;;;;;;18.05;4.00;;;14.90;99.90;;;;;;5054177;28;25081;-62
2022/05/26 05:28:29;;;;;;;22.63;5.22;;;14.90;99.90;;;;;;5051810;28;25132;-62
2022/05/26 05:31:15;;;;;;;19.77;4.60;;;15.00;99.90;;;;;;5052306;28;25124;-61
2022/05/26 05:33:49;;;;;;;26.40;5.97;;;15.00;99.90;;;;;;5051044;28;25055;-62
2022/05/26 05:36:24;;;;;;;22.02;4.78;;;15.10;99.90;;;;;;5054883;28;25093;-61
2022/05/26 05:38:49;;;;;;;21.63;4.30;;;15.20;99.90;;;;;;5055240;28;25067;-63
2022/05/26 05:41:15;;;;;;;18.80;3.97;;;15.20;99.90;;;;;;5054499;28;25073;-62
2022/05/26 05:43:41;;;;;;;23.00;4.45;;;15.20;99.90;;;;;;5054494;28;25075;-62
2022/05/26 05:46:08;;;;;;;18.08;4.45;;;15.30;99.90;;;;;;5051247;28;25079;-64
2022/05/26 05:48:34;;;;;;;15.60;3.90;;;15.40;99.90;;;;;;5055102;28;25058;-63
2022/05/26 05:50:59;;;;;;;12.00;3.25;;;15.40;99.90;;;;;;5054019;28;25092;-63
2022/05/26 05:53:26;;;;;;;17.38;4.05;;;15.40;99.90;;;;;;5052902;28;25142;-64
2022/05/26 05:55:51;;;;;;;15.48;4.32;;;15.60;99.90;;;;;;5054893;28;25103;-62
2022/05/26 05:58:17;;;;;;;16.48;4.38;;;15.70;99.90;;;;;;5054829;28;25059;-62
2022/05/26 06:00:42;;;;;;;18.95;4.70;;;15.70;99.90;;;;;;5053225;28;25059;-61
2022/05/26 06:03:09;;;;;;;15.85;4.63;;;15.70;99.90;;;;;;5055510;28;25131;-62
2022/05/26 06:05:36;;;;;;;11.98;4.18;;;15.80;99.90;;;;;;5054647;28;25066;-62
2022/05/26 06:08:03;;;;;;;18.23;4.32;;;15.90;99.90;;;;;;5056024;28;25062;-62
2022/05/26 06:10:30;;;;;;;11.45;3.28;;;15.80;99.90;;;;;;5057319;28;25159;-62
2022/05/26 06:12:56;;;;;;;17.95;3.30;;;15.90;99.90;;;;;;5053706;28;25061;-62
2022/05/26 06:15:21;;;;;;;11.82;3.63;;;16.10;99.90;;;;;;5053600;28;25084;-62
2022/05/26 06:17:47;;;;;;;20.42;3.63;;;16.20;99.90;;;;;;5054541;28;25064;-61
2022/05/26 06:20:13;;;;;;;14.57;3.10;;;16.50;99.90;;;;;;5053979;28;25066;-63
2022/05/26 06:22:47;;;;;;;12.25;3.30;;;16.80;99.90;;;;;;5050567;28;25081;-62
2022/05/26 06:25:16;;;;;;;12.85;4.18;;;16.70;99.90;;;;;;5051237;28;25131;-62
2022/05/26 06:30:30;;;;;;;15.75;3.22;;;16.60;99.90;;;;;;5050123;28;25149;-61
2022/05/26 06:38:37;;;;;;;12.20;3.53;;;16.50;99.90;;;;;;5050172;28;25069;-62
2022/05/26 06:43:48;;;;;;;13.80;3.65;;;17.10;99.90;;;;;;5051227;28;25089;-62
2022/05/26 06:46:15;;;;;;;14.52;3.45;;;17.20;99.90;;;;;;5049781;28;25058;-63
2022/05/26 06:48:41;;;;;;;13.13;3.55;;;17.10;99.90;;;;;;5055651;28;25131;-62
2022/05/26 06:51:07;;;;;;;13.98;3.85;;;17.00;99.90;;;;;;5055682;28;25047;-62
2022/05/26 06:53:33;;;;;;;11.77;3.67;;;17.10;99.90;;;;;;5055655;28;25057;-62
2022/05/26 06:55:58;;;;;;;11.95;3.00;;;17.20;99.90;;;;;;5062213;28;25100;-62
2022/05/26 06:58:25;;;;;;;12.35;3.25;;;17.10;99.90;;;;;;5060806;28;25082;-62
2022/05/26 07:00:51;;;;;;;11.07;3.95;;;17.20;99.90;;;;;;5057253;28;25070;-61
2022/05/26 07:03:17;;;;;;;8.70;3.25;;;17.10;99.90;;;;;;5051146;28;25070;-63
2022/05/26 07:05:42;;;;;;;15.70;3.88;;;17.00;99.90;;;;;;5056130;28;25127;-61
2022/05/26 07:08:08;;;;;;;11.63;3.25;;;16.70;99.90;;;;;;5055161;28;25145;-62
2022/05/26 07:10:34;;;;;;;11.43;2.60;;;17.00;99.90;;;;;;5053285;28;25083;-62
2022/05/26 07:13:00;;;;;;;7.00;2.40;;;17.40;99.90;;;;;;5054570;28;25083;-64
2022/05/26 07:15:26;;;;;;;14.52;2.97;;;17.80;99.90;;;;;;5055147;28;25068;-64
2022/05/26 07:17:51;;;;;;;8.77;2.65;;;18.10;99.90;;;;;;5052369;28;25083;-61
2022/05/26 07:20:18;;;;;;;13.32;2.88;;;17.90;99.90;;;;;;5054850;28;25073;-63
2022/05/26 07:22:43;;;;;;;7.95;2.88;;;17.70;99.90;;;;;;5055593;28;25046;-61
2022/05/26 07:25:10;;;;;;;10.68;3.20;;;17.80;99.90;;;;;;5053088;28;25147;-63
2022/05/26 07:27:36;;;;;;;11.95;2.88;;;17.80;99.90;;;;;;5054560;28;25146;-61
2022/05/26 07:30:02;;;;;;;11.80;3.00;;;17.50;99.90;;;;;;5057032;28;25053;-62
2022/05/26 07:32:28;;;;;;;8.90;2.75;;;17.60;99.90;;;;;;5056468;28;25127;-62
2022/05/26 07:34:54;;;;;;;7.85;2.50;;;18.00;99.90;;;;;;5055603;28;25078;-64
2022/05/26 07:42:48;;;;;;;5.38;2.45;;;18.40;99.90;;;;;;5055221;28;25156;-63
2022/05/26 07:45:14;;;;;;;10.52;2.60;;;18.00;99.90;;;;;;5055194;28;25070;-61
2022/05/26 07:47:39;;;;;;;11.98;2.40;;;18.10;99.90;;;;;;5056995;28;25074;-64
2022/05/26 07:50:09;;;;;;;10.93;2.35;;;18.50;99.90;;;;;;5056555;28;25056;-63
2022/05/26 07:52:35;;;;;;;10.18;2.55;;;18.80;99.90;;;;;;5054846;28;25069;-63
2022/05/26 07:55:01;;;;;;;4.95;2.03;;;18.90;99.90;;;;;;5055935;28;25076;-63
2022/05/26 07:57:28;;;;;;;9.43;2.42;;;18.90;99.90;;;;;;5056692;28;25073;-61
2022/05/26 07:59:55;;;;;;;8.05;2.00;;;18.90;99.90;;;;;;5058135;28;25053;-62
2022/05/26 08:02:21;;;;;;;9.48;2.00;;;18.90;99.90;;;;;;5056799;28;25071;-64
2022/05/26 08:04:47;;;;;;;11.02;2.38;;;19.10;99.90;;;;;;5054803;28;25065;-62
2022/05/26 08:07:13;;;;;;;10.85;2.83;;;19.60;99.90;;;;;;5056159;28;25077;-62
2022/05/26 08:09:40;;;;;;;10.32;2.75;;;19.70;99.90;;;;;;5057681;28;25064;-63
2022/05/26 08:12:10;;;;;;;6.85;2.75;;;19.30;99.90;;;;;;5056005;28;25062;-61
2022/05/26 08:14:36;;;;;;;7.90;2.75;;;18.80;99.90;;;;;;5056018;28;25098;-62
2022/05/26 08:17:02;;;;;;;23.95;3.33;;;18.70;99.90;;;;;;5055062;28;25146;-62
2022/05/26 08:19:29;;;;;;;13.98;3.67;;;18.60;99.90;;;;;;5056202;28;25060;-62
2022/05/26 08:21:55;;;;;;;7.93;2.58;;;18.50;99.90;;;;;;5056313;28;25086;-61
2022/05/26 08:24:21;;;;;;;8.32;3.08;;;18.20;99.90;;;;;;5055641;28;25056;-63
2022/05/26 08:26:47;;;;;;;9.18;2.58;;;18.20;99.90;;;;;;5055564;28;25177;-62
2022/05/26 08:29:13;;;;;;;12.15;3.00;;;18.10;99.90;;;;;;5055787;28;25165;-60
2022/05/26 08:31:38;;;;;;;10.13;2.28;;;17.90;99.90;;;;;;5058476;28;25105;-62
2022/05/26 08:34:04;;;;;;;8.77;2.38;;;17.80;99.90;;;;;;5058009;28;25104;-62
2022/05/26 08:36:29;;;;;;;13.40;2.83;;;17.80;99.90;;;;;;5052368;28;25061;-61
2022/05/26 08:38:55;;;;;;;9.45;3.17;;;18.00;99.90;;;;;;5050423;28;25154;-63
2022/05/26 08:41:30;;;;;;;10.02;2.70;;;18.20;99.90;;;;;;5053060;28;25064;-62
2022/05/26 08:44:04;;;;;;;10.98;2.17;;;18.00;99.90;;;;;;5051512;28;25109;-64
2022/05/26 08:47:09;;;;;;;9.48;2.47;;;18.10;99.90;;;;;;5050909;28;25147;-63
2022/05/26 08:49:39;;;;;;;12.90;2.90;;;18.50;99.90;;;;;;5050135;28;25067;-63
2022/05/26 08:52:10;;;;;;;9.10;2.70;;;18.90;99.90;;;;;;5050593;28;25051;-65
2022/05/26 08:54:50;;;;;;;11.97;2.70;;;19.20;99.90;;;;;;5046347;28;25083;-62
2022/05/26 08:57:25;;;;;;;8.73;2.30;;;19.20;99.90;;;;;;5050352;28;25109;-63
2022/05/26 08:59:51;;;;;;;8.13;2.58;;;19.20;99.90;;;;;;5054271;28;25087;-61
2022/05/26 09:02:26;;;;;;;7.28;2.28;;;19.20;99.90;;;;;;5053514;28;25110;-63
2022/05/26 09:04:56;;;;;;;12.30;2.78;;;19.30;99.90;;;;;;5047964;28;25094;-61
2022/05/26 09:13:10;;;;;;;14.73;3.00;;;19.20;99.90;;;;;;5050821;28;25106;-62
2022/05/26 09:15:36;;;;;;;14.35;2.42;;;19.70;99.90;;;;;;5053637;28;25052;-63
2022/05/26 09:18:17;;;;;;;6.40;2.47;;;19.90;99.90;;;;;;5052309;28;25122;-62
2022/05/26 09:20:45;;;;;;;11.07;3.17;;;20.00;99.90;;;;;;5053579;28;25072;-62
2022/05/26 09:23:23;;;;;;;12.65;3.45;;;20.00;99.90;;;;;;5052637;28;25071;-61
2022/05/26 09:26:01;;;;;;;11.50;2.65;;;20.10;99.90;;;;;;5049865;28;25158;-63
2022/05/26 09:28:52;;;;;;;10.48;2.67;;;19.60;99.90;;;;;;5048865;28;25092;-61
2022/05/26 09:31:36;;;;;;;9.73;2.90;;;19.40;99.90;;;;;;5053286;28;25130;-63
2022/05/26 09:34:09;;;;;;;14.00;3.40;;;18.90;99.90;;;;;;5051304;28;25090;-62
2022/05/26 09:36:46;;;;;;;11.68;3.58;;;18.80;99.90;;;;;;5053785;28;25058;-61
2022/05/26 09:39:13;;;;;;;11.63;3.65;;;19.10;99.90;;;;;;5051147;28;25083;-62
2022/05/26 09:41:49;;;;;;;14.50;3.33;;;19.50;99.90;;;;;;5055043;28;25095;-62
2022/05/26 09:44:31;;;;;;;8.52;2.67;;;19.80;99.90;;;;;;5053125;28;25056;-61
2022/05/26 09:47:01;;;;;;;6.18;2.63;;;19.90;99.40;;;;;;5049344;28;25062;-64
2022/05/26 09:49:32;;;;;;;13.70;2.88;;;20.20;99.10;;;;;;5047756;28;25174;-62
2022/05/26 09:52:17;;;;;;;10.25;2.97;;;20.30;99.90;;;;;;5051781;28;25063;-62
2022/05/26 09:54:44;;;;;;;8.07;2.10;;;20.30;99.90;;;;;;5054838;28;25066;-62
2022/05/26 09:57:17;;;;;;;9.23;2.67;;;20.30;99.60;;;;;;5055722;28;25114;-62
2022/05/26 09:59:44;;;;;;;8.63;2.63;;;20.50;99.30;;;;;;5054973;28;25083;-63
2022/05/26 10:02:24;;;;;;;9.00;2.33;;;20.40;98.50;;;;;;5055966;28;25098;-63
2022/05/26 10:05:11;;;;;;;10.15;2.15;;;20.20;97.30;;;;;;5052474;28;25139;-63
2022/05/26 10:07:54;;;;;;;11.50;2.60;;;19.80;98.00;;;;;;5052163;28;25082;-62
2022/05/26 10:10:25;;;;;;;9.57;2.60;;;19.80;99.90;;;;;;5052315;28;25061;-61
2022/05/26 10:12:55;;;;;;;8.43;2.55;;;20.00;99.90;;;;;;5053879;28;25120;-61
2022/05/26 10:15:30;;;;;;;14.85;2.60;;;20.30;98.00;;;;;;5058123;28;25147;-62
2022/05/26 10:18:21;;;;;;;13.30;2.78;;;20.60;96.70;;;;;;5054577;28;25155;-62
2022/05/26 10:20:58;;;;;;;10.35;2.75;;;20.40;96.80;;;;;;5053053;28;25077;-62
2022/05/26 10:23:46;;;;;;;11.57;2.60;;;20.30;99.20;;;;;;5053364;28;25093;-61
2022/05/26 10:26:41;;;;;;;8.27;2.35;;;20.30;98.20;;;;;;5053436;28;25148;-63
2022/05/26 10:29:22;;;;;;;11.23;2.72;;;20.30;97.10;;;;;;5052828;28;25074;-62
2022/05/26 10:32:11;;;;;;;4.95;2.05;;;19.40;97.90;;;;;;5055859;28;25141;-63
2022/05/26 10:34:55;;;;;;;9.77;2.20;;;19.40;99.50;;;;;;5054515;28;25089;-63
2022/05/26 10:37:32;;;;;;;6.85;2.72;;;19.70;98.20;;;;;;5051743;28;25052;-60
2022/05/26 10:40:39;;;;;;;11.57;2.10;;;19.70;99.80;;;;;;5054232;28;25072;-63
2022/05/26 10:43:10;;;;;;;10.23;1.80;;;20.20;98.80;;;;;;5053063;28;25054;-61
2022/05/26 10:45:43;;;;;;;9.83;2.00;;;19.70;95.50;;;;;;5052757;28;25081;-61
2022/05/26 10:48:22;;;;;;;7.22;1.92;;;19.00;98.60;;;;;;5054162;28;25077;-61
2022/05/26 10:50:54;;;;;;;10.05;2.78;;;19.30;99.90;;;;;;5054766;28;25102;-62
2022/05/26 10:53:53;;;;;;;14.52;2.50;;;19.70;99.90;;;;;;5053567;28;25034;-63
2022/05/26 10:56:28;;;;;;;9.13;2.25;;;19.90;99.90;;;;;;5053830;28;25096;-61
2022/05/26 10:59:24;;;;;;;11.55;3.00;;;20.00;99.60;;;;;;5054618;28;25077;-61
2022/05/26 11:02:02;;;;;;;8.00;2.35;;;20.10;99.90;;;;;;5053100;28;25077;-62
2022/05/26 11:04:44;;;;;;;8.77;2.42;;;20.30;99.90;;;;;;5053836;28;25089;-61
2022/05/26 11:07:32;;;;;;;9.23;2.45;;;20.70;99.00;;;;;;5054130;28;25089;-61
2022/05/26 11:10:27;;;;;;;6.13;1.85;;;20.80;95.50;;;;;;5054890;28;25074;-62
2022/05/26 11:13:17;;;;;;;10.45;2.97;;;20.50;96.80;;;;;;5052851;28;25058;-61
2022/05/26 11:18:45;;;;;;;14.95;2.63;;;20.50;97.50;;;;;;5052714;28;25053;-61
2022/05/26 11:21:16;;;;;;;7.47;1.88;;;20.30;96.00;;;;;;5053552;28;25139;-62
2022/05/26 11:23:42;;;;;;;8.85;2.63;;;20.20;97.70;;;;;;5053362;28;25139;-61
2022/05/26 11:26:38;;;;;;;17.00;3.60;;;20.40;96.70;;;;;;5053757;28;25058;-61
2022/05/26 11:29:31;;;;;;;8.18;1.77;;;20.70;95.20;;;;;;5054227;28;25083;-62
2022/05/26 11:38:08;;;;;;;6.70;2.40;;;20.10;96.10;;;;;;5059227;28;24190;-63
2022/05/26 11:40:45;;;;;;;4.65;1.70;;;20.30;95.80;;;;;;5060005;28;25075;-60
2022/05/26 11:43:21;;;;;;;11.90;2.05;;;20.20;94.40;;;;;;5056045;28;25107;-62
2022/05/26 11:45:50;;;;;;;4.35;1.52;;;20.20;94.40;;;;;;5058762;28;25064;-61
2022/05/26 11:48:31;;;;;;;6.18;2.00;;;19.90;95.30;;;;;;5057077;28;25098;-61
2022/05/26 11:50:57;;;;;;;6.20;1.85;;;19.90;95.40;;;;;;5057156;28;25143;-60
2022/05/26 11:53:36;;;;;;;7.03;2.00;;;19.90;94.60;;;;;;5056234;28;25070;-60
2022/05/26 11:56:24;;;;;;;8.43;1.52;;;19.80;94.60;;;;;;5053269;28;25156;-63
2022/05/26 11:59:22;;;;;;;13.57;2.72;;;20.10;95.50;;;;;;5053230;28;25098;-63
2022/05/26 12:02:08;;;;;;;10.55;1.85;;;20.20;94.80;;;;;;5052163;28;25108;-62
2022/05/26 12:04:39;;;;;;;8.35;2.20;;;20.40;95.40;;;;;;5050021;28;25150;-62
2022/05/26 12:07:26;;;;;;;3.97;1.35;;;20.50;95.40;;;;;;5051335;28;25059;-63
2022/05/26 12:09:58;;;;;;;6.82;1.58;;;20.80;94.70;;;;;;5045615;28;25076;-62
2022/05/26 12:12:23;;;;;;;7.63;2.05;;;20.70;93.50;;;;;;5052058;28;25072;-62
2022/05/26 12:14:57;;;;;;;6.05;2.00;;;20.60;94.30;;;;;;5050719;28;25117;-63
2022/05/26 12:18:02;;;;;;;8.88;2.22;;;20.40;95.50;;;;;;5052046;28;25147;-63
2022/05/26 12:20:32;;;;;;;7.97;2.00;;;20.30;96.80;;;;;;5002960;28;25037;-61
2022/05/26 12:23:04;;;;;;;6.53;2.22;;;20.40;96.60;;;;;;4998698;28;25172;-62
2022/05/26 12:25:39;;;;;;;12.53;2.87;;;20.30;97.80;;;;;;5017228;28;25088;-62
2022/05/26 12:28:11;;;;;;;8.57;2.72;;;20.30;98.10;;;;;;5049097;28;25082;-62
2022/05/26 12:30:46;;;;;;;6.38;2.33;;;20.40;98.00;;;;;;5060636;28;25123;-63
2022/05/26 12:33:18;;;;;;;10.23;2.85;;;20.80;97.60;;;;;;5066080;28;25062;-61
2022/05/26 12:35:49;;;;;;;6.95;2.88;;;20.90;97.00;;;;;;5062048;28;25068;-62
2022/05/26 12:38:33;;;;;;;8.27;2.80;;;20.80;97.30;;;;;;5056609;28;25102;-62
2022/05/26 12:41:11;;;;;;;11.90;3.58;;;20.70;97.40;;;;;;5055864;28;25075;-62
2022/05/26 12:43:52;;;;;;;9.95;2.45;;;20.50;97.40;;;;;;5052797;28;25068;-61
2022/05/26 12:46:25;;;;;;;7.35;2.67;;;20.50;97.40;;;;;;5054554;28;25060;-62
2022/05/26 12:49:29;;;;;;;9.73;2.28;;;20.30;96.70;;;;;;5054074;28;25064;-62
2022/05/26 12:52:08;;;;;;;8.65;2.40;;;20.20;96.60;;;;;;5037004;28;25075;-63
2022/05/26 12:54:46;;;;;;;7.03;1.92;;;20.20;96.50;;;;;;5053813;28;25047;-62
2022/05/26 12:57:17;;;;;;;6.03;1.70;;;20.10;94.20;;;;;;5054086;28;25076;-62
2022/05/26 12:59:43;;;;;;;7.22;1.80;;;20.20;93.00;;;;;;5050081;28;25130;-62
2022/05/26 13:02:13;;;;;;;5.03;1.08;;;20.20;91.90;;;;;;5054391;28;25061;-60
2022/05/26 13:04:40;;;;;;;8.60;1.50;;;20.30;90.80;;;;;;5054357;28;25112;-61
2022/05/26 13:07:08;;;;;;;3.38;1.17;;;20.40;91.30;;;;;;5056883;28;25159;-62
2022/05/26 13:09:44;;;;;;;4.95;1.85;;;20.60;91.30;;;;;;5056188;28;25066;-65
2022/05/26 13:12:11;;;;;;;7.10;1.85;;;20.30;93.20;;;;;;5054530;28;25047;-61
2022/05/26 13:14:52;;;;;;;7.07;1.80;;;20.10;93.70;;;;;;5057620;28;25104;-63
2022/05/26 13:17:26;;;;;;;4.72;1.17;;;20.40;95.30;;;;;;5061297;28;25113;-62
2022/05/26 13:19:59;;;;;;;9.98;2.60;;;20.10;94.00;;;;;;5061932;28;25055;-61
2022/05/26 13:22:39;;;;;;;3.53;1.92;;;19.60;96.00;;;;;;5057861;28;25067;-63
2022/05/26 13:25:14;;;;;;;8.38;1.60;;;19.90;94.80;;;;;;5055622;28;25098;-62
2022/05/26 13:27:48;;;;;;;8.23;1.60;;;19.90;95.30;;;;;;5053565;28;25064;-60
2022/05/26 13:33:11;;;;;;;7.00;1.80;;;19.80;95.00;;;;;;5054148;28;25080;-63
2022/05/26 13:35:48;;;;;;;4.78;1.48;;;19.50;95.40;;;;;;5055764;28;25067;-63
2022/05/26 13:38:34;;;;;;;5.53;1.67;;;19.70;95.60;;;;;;5055508;28;25050;-63
2022/05/26 13:41:01;;;;;;;6.95;1.92;;;19.50;96.00;;;;;;5054833;28;25071;-63
2022/05/26 13:43:30;;;;;;;5.80;1.52;;;19.50;96.00;;;;;;5052498;28;25046;-63
2022/05/26 13:45:56;;;;;;;5.40;1.70;;;19.70;96.30;;;;;;5055033;28;25096;-62
2022/05/26 13:48:31;;;;;;;9.52;2.10;;;19.70;96.70;;;;;;5054657;28;25149;-62